Time;durP1;ratioP1;P1;durP2;ratioP2;P2;SDS_P1;SDS_P2;PMS_P1;PMS_P2;Temp;Humidity;BMP_temperature;BMP_pressure;BME280_temperature;BME280_humidity;BME280_pressure;Samples;Min_cycle;Max_cycle;Signal;HPM_P1;HPM_P2
2021/11/09 00:01:10;;;;;;;0.40;0.40;;;;;;;8.49;55.80;98416.91;3469828;28;20069;-73
2021/11/09 00:02:53;;;;;;;0.40;0.40;;;;;;;8.48;55.95;98420.59;3486822;28;20036;-71
2021/11/09 00:04:40;;;;;;;0.40;0.40;;;;;;;8.49;55.79;98417.75;3488108;28;20037;-72
2021/11/09 00:06:25;;;;;;;0.50;0.50;;;;;;;8.48;56.07;98431.22;3485353;28;20512;-72
2021/11/09 00:08:13;;;;;;;0.38;0.35;;;;;;;8.46;56.29;98427.97;3487165;28;20167;-73
2021/11/09 00:09:57;;;;;;;1.10;0.40;;;;;;;8.49;56.18;98430.19;3494560;28;20046;-71
2021/11/09 00:11:38;;;;;;;0.60;0.57;;;;;;;8.48;56.37;98431.22;3482359;28;20033;-72
2021/11/09 00:13:20;;;;;;;0.70;0.60;;;;;;;8.47;56.47;98427.75;3468777;28;20052;-70
2021/11/09 00:15:02;;;;;;;0.75;0.50;;;;;;;8.50;56.54;98432.66;3479484;28;20045;-72
2021/11/09 00:16:44;;;;;;;2.50;0.50;;;;;;;8.38;56.45;98417.56;3481971;28;20045;-72
2021/11/09 00:18:26;;;;;;;1.02;0.57;;;;;;;8.50;56.63;98439.81;3482019;28;20045;-72
2021/11/09 00:20:10;;;;;;;0.47;0.43;;;;;;;8.49;56.88;98438.16;3482342;28;20037;-72
2021/11/09 00:21:52;;;;;;;1.15;0.50;;;;;;;8.47;56.92;98434.91;3481467;28;20041;-71
2021/11/09 00:23:36;;;;;;;0.60;0.60;;;;;;;8.47;57.03;98434.91;3494880;28;20127;-72
2021/11/09 00:25:18;;;;;;;0.60;0.50;;;;;;;8.46;56.79;98431.44;3494648;28;20055;-72
2021/11/09 00:26:59;;;;;;;0.65;0.50;;;;;;;8.42;57.00;98432.09;3480137;28;20045;-76
2021/11/09 00:28:41;;;;;;;0.60;0.60;;;;;;;8.37;57.45;98414.09;3466900;28;20139;-74
2021/11/09 00:30:24;;;;;;;0.50;0.40;;;;;;;8.60;58.07;98444.66;3489706;28;20055;-77
2021/11/09 00:32:08;;;;;;;0.95;0.50;;;;;;;8.66;58.29;98444.59;3468270;28;20037;-79
2021/11/09 00:33:51;;;;;;;0.40;0.40;;;;;;;8.72;58.45;98442.94;3489570;28;20128;-77
2021/11/09 00:35:32;;;;;;;;;;;;;;;8.94;57.83;98448.75;3459390;28;20045;-76
2021/11/09 00:37:13;;;;;;;0.50;0.50;;;;;;;8.92;57.88;98448.13;3478008;28;20012;-76
2021/11/09 00:38:54;;;;;;;0.68;0.50;;;;;;;8.88;57.77;98436.28;3483452;28;20033;-77
2021/11/09 00:40:38;;;;;;;0.70;0.50;;;;;;;9.04;58.46;98446.44;3482318;28;20538;-76
2021/11/09 00:42:19;;;;;;;1.00;0.55;;;;;;;9.16;58.28;98450.03;3476261;28;20124;-77
2021/11/09 00:44:00;;;;;;;0.40;0.40;;;;;;;9.23;58.02;98451.81;3479605;28;20075;-77
2021/11/09 00:45:41;;;;;;;0.60;0.55;;;;;;;9.24;57.86;98454.25;3492958;28;20162;-75
2021/11/09 00:47:22;;;;;;;0.57;0.52;;;;;;;9.31;57.94;98462.97;3468739;28;20075;-78
2021/11/09 00:49:03;;;;;;;5.85;0.70;;;;;;;9.37;57.77;98455.97;3492954;28;20055;-76
2021/11/09 00:50:46;;;;;;;0.40;0.40;;;;;;;9.46;58.33;98462.66;3483079;28;20636;-77
2021/11/09 00:52:27;;;;;;;1.67;0.47;;;;;;;9.56;58.37;98464.84;3495068;28;20041;-76
2021/11/09 00:54:07;;;;;;;0.32;0.32;;;;;;;9.71;59.03;98467.97;3497416;28;20592;-76
2021/11/09 00:55:49;;;;;;;0.50;0.47;;;;;;;9.93;58.79;98472.88;3498569;28;20105;-77
2021/11/09 00:57:29;;;;;;;0.30;0.30;;;;;;;10.01;58.22;98470.72;3497157;28;20037;-77
2021/11/09 00:59:10;;;;;;;0.85;0.38;;;;;;;10.11;57.53;98478.22;3481674;28;20543;-76
2021/11/09 01:00:51;;;;;;;0.40;0.40;;;;;;;10.17;57.48;98468.50;3493639;28;20040;-77
2021/11/09 01:02:32;;;;;;;0.50;0.40;;;;;;;10.22;57.38;98480.16;3496051;28;20051;-80
2021/11/09 01:04:13;;;;;;;0.40;0.40;;;;;;;10.22;57.21;98477.50;3481123;28;20439;-75
2021/11/09 01:05:54;;;;;;;0.40;0.40;;;;;;;10.27;57.09;98479.47;3466525;28;20037;-78
2021/11/09 01:07:35;;;;;;;0.40;0.40;;;;;;;10.23;57.29;98468.44;3485758;28;20044;-76
2021/11/09 01:09:16;;;;;;;0.40;0.40;;;;;;;10.36;57.35;98480.03;3481403;28;20083;-78
2021/11/09 01:10:57;;;;;;;0.30;0.30;;;;;;;10.44;57.10;98483.19;3493498;28;20322;-78
2021/11/09 01:12:38;;;;;;;0.77;0.40;;;;;;;10.44;56.84;98479.72;3496622;28;20119;-78
2021/11/09 01:14:20;;;;;;;0.30;0.30;;;;;;;10.41;56.42;98483.66;3495602;28;20052;-78
2021/11/09 01:16:01;;;;;;;0.65;0.65;;;;;;;10.37;56.19;98487.78;3496854;28;20067;-78
2021/11/09 01:17:43;;;;;;;0.50;0.50;;;;;;;10.30;56.11;98486.22;3496603;28;20068;-81
2021/11/09 01:19:24;;;;;;;0.40;0.40;;;;;;;10.32;56.48;98492.16;3454515;28;20041;-78
2021/11/09 01:21:05;;;;;;;0.77;0.40;;;;;;;10.32;56.70;98503.59;3476342;28;20068;-79
2021/11/09 01:22:50;;;;;;;0.68;0.50;;;;;;;10.35;56.43;98505.84;3493577;28;20113;-77
2021/11/09 01:24:30;;;;;;;1.05;0.60;;;;;;;10.33;56.57;98505.25;3482755;28;20102;-77
2021/11/09 01:26:12;;;;;;;0.30;0.30;;;;;;;10.36;56.72;98501.34;3493746;28;20052;-78
2021/11/09 01:27:53;;;;;;;0.73;0.50;;;;;;;10.38;56.70;98499.28;3496641;28;20067;-79
2021/11/09 01:29:36;;;;;;;1.33;0.60;;;;;;;10.38;56.26;98504.59;3497752;28;20119;-77
2021/11/09 01:31:17;;;;;;;0.32;0.32;;;;;;;10.41;56.23;98522.78;3498039;28;20044;-78
2021/11/09 01:32:58;;;;;;;0.50;0.50;;;;;;;10.41;56.32;98520.94;3497854;28;20054;-79
2021/11/09 01:34:38;;;;;;;0.40;0.40;;;;;;;10.47;56.26;98520.03;3496631;28;20495;-79
2021/11/09 01:36:20;;;;;;;1.63;0.50;;;;;;;10.44;56.10;98528.47;3496837;28;20040;-77
2021/11/09 01:38:01;;;;;;;0.40;0.40;;;;;;;10.41;55.99;98530.78;3496712;28;20048;-78
2021/11/09 01:39:42;;;;;;;1.77;0.50;;;;;;;10.37;56.29;98542.91;3497156;28;20123;-78
2021/11/09 01:41:22;;;;;;;0.50;0.50;;;;;;;10.28;56.27;98544.25;3496810;28;20044;-78
2021/11/09 01:43:04;;;;;;;1.70;0.47;;;;;;;10.22;56.03;98553.88;3482266;28;20040;-79
2021/11/09 01:44:45;;;;;;;0.30;0.30;;;;;;;10.17;56.04;98556.38;3479369;28;20178;-79
2021/11/09 01:46:26;;;;;;;0.40;0.40;;;;;;;10.19;56.45;98573.75;3494522;28;20044;-78
2021/11/09 01:48:08;;;;;;;0.30;0.30;;;;;;;10.32;57.46;98575.50;3496889;28;20106;-78
2021/11/09 01:49:48;;;;;;;0.47;0.30;;;;;;;10.55;57.95;98560.75;3497424;28;20033;-79
2021/11/09 01:51:30;;;;;;;0.30;0.30;;;;;;;10.90;57.06;98583.06;3500082;28;20048;-80
2021/11/09 01:53:11;;;;;;;1.48;0.45;;;;;;;11.20;56.59;98582.28;3499392;28;20044;-79
2021/11/09 01:54:51;;;;;;;0.85;0.40;;;;;;;11.50;56.16;98576.13;3498518;28;20560;-75
2021/11/09 01:56:33;;;;;;;3.85;0.50;;;;;;;11.79;55.53;98585.94;3498881;28;20048;-76
2021/11/09 01:58:14;;;;;;;0.40;0.40;;;;;;;12.04;54.78;98589.50;3470569;28;20042;-77
2021/11/09 01:59:58;;;;;;;4.43;0.50;;;;;;;12.15;53.81;98594.81;3467798;28;20405;-77
2021/11/09 02:01:39;;;;;;;1.50;0.50;;;;;;;12.13;52.77;98601.44;3467760;28;20049;-76
2021/11/09 02:03:20;;;;;;;0.40;0.40;;;;;;;11.99;52.20;98601.66;3485301;28;20036;-76
2021/11/09 02:05:02;;;;;;;1.35;0.30;;;;;;;11.79;51.84;98606.47;3498283;28;20129;-76
2021/11/09 02:06:44;;;;;;;1.02;0.40;;;;;;;11.52;51.96;98617.56;3498726;28;20508;-76
2021/11/09 02:08:25;;;;;;;0.30;0.30;;;;;;;11.29;52.29;98617.47;3498350;28;20061;-76
2021/11/09 02:10:06;;;;;;;0.70;0.50;;;;;;;11.27;53.07;98620.34;3498870;28;20576;-75
2021/11/09 02:11:47;;;;;;;0.43;0.38;;;;;;;11.42;53.80;98617.28;3483636;28;20514;-76
2021/11/09 02:13:28;;;;;;;0.60;0.50;;;;;;;11.62;53.51;98626.88;3495176;28;20559;-75
2021/11/09 02:15:10;;;;;;;0.93;0.52;;;;;;;11.73;52.50;98629.56;3498035;28;20039;-78
2021/11/09 02:16:51;;;;;;;1.08;0.52;;;;;;;11.75;52.29;98635.50;3484225;28;20064;-78
2021/11/09 02:18:33;;;;;;;1.17;0.50;;;;;;;11.69;52.04;98633.72;3495839;28;20147;-78
2021/11/09 02:20:16;;;;;;;0.60;0.55;;;;;;;11.71;52.42;98636.16;3483730;28;20044;-78
2021/11/09 02:21:57;;;;;;;0.40;0.30;;;;;;;11.85;52.75;98642.13;3483573;28;20495;-77
2021/11/09 02:23:41;;;;;;;0.40;0.40;;;;;;;12.05;52.42;98642.66;3482975;28;20083;-78
2021/11/09 02:25:24;;;;;;;0.38;0.30;;;;;;;12.21;51.31;98655.34;3495718;28;20055;-77
2021/11/09 02:27:04;;;;;;;;;;;;;;;12.27;50.88;98658.97;3499220;28;20503;-77
2021/11/09 02:28:47;;;;;;;1.08;0.57;;;;;;;12.19;50.90;98660.09;3498230;28;19927;-77
2021/11/09 02:30:29;;;;;;;0.40;0.38;;;;;;;12.23;50.92;98666.59;3498349;28;20037;-78
2021/11/09 02:32:10;;;;;;;;;;;;;;;12.35;51.08;98663.16;3498604;28;20036;-78
2021/11/09 02:33:50;;;;;;;0.30;0.30;;;;;;;12.41;50.39;98672.91;3483046;28;19943;-76
2021/11/09 02:35:31;;;;;;;0.30;0.30;;;;;;;12.41;49.80;98681.72;3495035;28;20135;-78
2021/11/09 02:37:12;;;;;;;0.75;0.40;;;;;;;12.41;49.87;98673.72;3484013;28;20049;-77
2021/11/09 02:38:53;;;;;;;0.65;0.40;;;;;;;12.43;49.44;98676.16;3495070;28;20526;-77
2021/11/09 02:40:34;;;;;;;0.40;0.40;;;;;;;12.23;48.94;98681.81;3498257;28;20066;-77
2021/11/09 02:42:18;;;;;;;0.30;0.30;;;;;;;12.00;49.02;98695.94;3483907;28;20049;-79
2021/11/09 02:44:00;;;;;;;1.95;0.30;;;;;;;11.67;49.28;98697.22;3495670;28;20089;-77
2021/11/09 02:48:09;;;;;;;1.45;0.63;;;;;;;11.07;50.36;98705.09;3500173;28;20048;-78
2021/11/09 02:50:07;;;;;;;0.40;0.40;;;;;;;10.81;50.73;98708.88;3488139;28;20068;-78
2021/11/09 02:52:09;;;;;;;0.30;0.30;;;;;;;10.60;50.86;98713.56;3499416;28;20131;-78
2021/11/09 02:54:37;;;;;;;0.40;0.40;;;;;;;10.45;51.30;98718.41;3481942;28;20497;-77
2021/11/09 02:56:01;;;;;;;1.05;0.30;;;;;;;10.27;51.57;98716.47;3491240;28;20049;-76
2021/11/09 02:57:50;;;;;;;0.20;0.20;;;;;;;10.16;51.90;98725.97;3489559;28;20096;-77
2021/11/09 03:01:35;;;;;;;0.82;0.30;;;;;;;9.97;52.04;98732.25;3488513;28;20037;-79
2021/11/09 03:03:22;;;;;;;0.30;0.30;;;;;;;9.87;52.56;98743.38;3485581;28;20575;-77
2021/11/09 03:05:10;;;;;;;0.60;0.30;;;;;;;9.76;52.63;98730.75;3482549;28;20119;-78
2021/11/09 03:07:00;;;;;;;0.40;0.40;;;;;;;9.71;52.69;98739.34;3497023;28;20032;-76
2021/11/09 03:08:46;;;;;;;0.38;0.38;;;;;;;9.68;52.96;98746.94;3498192;28;20052;-78
2021/11/09 03:12:10;;;;;;;0.40;0.40;;;;;;;9.53;53.14;98753.34;3483113;28;20592;-76
2021/11/09 03:13:51;;;;;;;0.20;0.20;;;;;;;9.46;53.25;98754.41;3480332;28;20176;-77
2021/11/09 03:15:34;;;;;;;0.10;0.10;;;;;;;9.42;53.62;98756.66;3489091;28;20036;-77
2021/11/09 03:17:21;;;;;;;0.47;0.30;;;;;;;9.37;53.76;98765.28;3497877;28;20522;-77
2021/11/09 03:40:51;;;;;;;0.40;0.40;;;;;;;8.86;54.56;98828.94;3497741;28;20059;-79
2021/11/09 03:46:15;;;;;;;0.35;0.35;;;;;;;8.75;54.65;98846.28;3497189;28;20036;-79
2021/11/09 03:48:03;;;;;;;0.30;0.30;;;;;;;8.73;54.67;98858.97;3484803;28;20051;-77
2021/11/09 03:49:45;;;;;;;0.43;0.30;;;;;;;8.70;55.03;98865.53;3499506;28;20053;-78
2021/11/09 03:51:26;;;;;;;0.87;0.37;;;;;;;8.70;54.94;98870.84;3501310;28;20040;-78
2021/11/09 03:53:17;;;;;;;1.33;0.30;;;;;;;8.68;55.20;98867.56;3484591;28;20044;-77
2021/11/09 03:55:03;;;;;;;0.13;0.13;;;;;;;8.68;55.05;98878.19;3482076;28;20075;-75
2021/11/09 03:58:47;;;;;;;0.30;0.30;;;;;;;8.62;55.25;98878.16;3500367;28;20036;-78
2021/11/09 04:00:35;;;;;;;1.20;0.30;;;;;;;8.56;55.14;98890.41;3500598;28;20033;-78
2021/11/09 04:06:03;;;;;;;0.40;0.40;;;;;;;8.59;55.11;98902.47;3497008;28;20594;-78
2021/11/09 04:08:03;;;;;;;0.30;0.30;;;;;;;8.60;55.02;98904.94;3498714;28;20496;-77
2021/11/09 04:11:46;;;;;;;2.63;0.40;;;;;;;8.58;55.33;98914.94;3497253;28;20051;-79
2021/11/09 04:13:41;;;;;;;0.25;0.25;;;;;;;8.58;55.41;98922.09;3481513;28;20037;-79
2021/11/09 04:15:40;;;;;;;6.22;0.40;;;;;;;8.58;55.21;98936.19;3496473;28;20083;-80
2021/11/09 04:21:20;;;;;;;0.70;0.32;;;;;;;8.57;55.26;98949.66;3496807;28;20132;-77
2021/11/09 04:23:39;;;;;;;0.40;0.40;;;;;;;8.56;55.28;98954.16;3496852;28;20059;-77
2021/11/09 04:27:53;;;;;;;0.65;0.40;;;;;;;8.57;55.33;98974.41;3495349;28;20134;-77
2021/11/09 04:31:26;;;;;;;0.38;0.38;;;;;;;8.53;54.87;98986.44;3466580;28;20095;-75
2021/11/09 04:52:40;;;;;;;6.05;1.08;;;;;;;8.92;55.27;98998.19;3480368;28;20037;-77
2021/11/09 05:08:26;;;;;;;4.28;1.30;;;;;;;10.09;58.06;99081.16;3501427;28;20037;-77
2021/11/09 05:10:10;;;;;;;8.27;1.48;;;;;;;10.07;55.40;99089.34;3475481;28;20041;-78
2021/11/09 05:11:50;;;;;;;2.35;1.20;;;;;;;9.92;54.54;99088.75;3484376;28;20045;-78
2021/11/09 05:13:31;;;;;;;1.58;1.23;;;;;;;9.73;53.88;99090.34;3493854;28;20178;-79
2021/11/09 05:15:13;;;;;;;1.38;1.10;;;;;;;9.60;53.78;99102.66;3481678;28;20041;-78
2021/11/09 05:16:53;;;;;;;1.70;1.20;;;;;;;9.48;53.65;99100.78;3478166;28;20041;-79
2021/11/09 05:18:35;;;;;;;3.47;1.23;;;;;;;9.53;56.00;99104.47;3493335;28;20063;-77
2021/11/09 05:20:15;;;;;;;1.40;0.80;;;;;;;9.81;57.82;99119.47;3496288;28;20143;-79
2021/11/09 05:21:56;;;;;;;2.60;0.90;;;;;;;10.05;57.64;99092.22;3480972;28;20377;-77
2021/11/09 05:23:37;;;;;;;2.90;1.10;;;;;;;10.26;55.38;99125.78;3493367;28;20480;-78
2021/11/09 05:25:18;;;;;;;1.75;1.00;;;;;;;10.24;53.31;99133.16;3495964;28;20044;-78
2021/11/09 05:26:59;;;;;;;1.20;0.88;;;;;;;10.09;52.58;99127.22;3496277;28;20484;-76
2021/11/09 05:28:40;;;;;;;1.40;1.17;;;;;;;9.90;52.31;99150.16;3496129;28;20074;-76
2021/11/09 05:30:24;;;;;;;1.67;1.23;;;;;;;9.72;51.96;99141.94;3495743;28;20090;-75
2021/11/09 05:32:05;;;;;;;1.40;1.23;;;;;;;9.59;52.32;99151.53;3495660;28;20033;-72
2021/11/09 05:33:47;;;;;;;4.72;1.63;;;;;;;9.49;52.33;99158.28;3481478;28;20089;-78
2021/11/09 05:35:27;;;;;;;3.55;1.77;;;;;;;9.40;52.33;99173.59;3478646;28;20139;-79
2021/11/09 05:37:10;;;;;;;3.13;2.00;;;;;;;9.31;52.27;99161.50;3492735;28;20495;-77
2021/11/09 05:38:59;;;;;;;2.13;1.38;;;;;;;9.23;51.98;99175.78;3495705;28;20044;-74
2021/11/09 05:40:41;;;;;;;3.08;1.70;;;;;;;9.21;52.52;99171.69;3496002;28;20462;-76
2021/11/09 05:42:22;;;;;;;2.80;1.52;;;;;;;9.19;52.43;99182.53;3495340;28;20060;-73
2021/11/09 05:44:04;;;;;;;2.10;1.90;;;;;;;9.17;52.06;99179.25;3495223;28;20044;-73
2021/11/09 05:45:45;;;;;;;;;;;;;;;9.27;52.22;99190.31;3495690;28;20490;-73
2021/11/09 05:47:27;;;;;;;2.60;1.70;;;;;;;9.16;51.83;99199.69;3480347;28;19928;-74
2021/11/09 05:49:08;;;;;;;1.45;1.35;;;;;;;9.14;52.49;99192.94;3478203;28;20041;-73
2021/11/09 05:50:49;;;;;;;2.30;1.48;;;;;;;9.17;52.33;99206.63;3492845;28;20570;-74
2021/11/09 05:52:31;;;;;;;3.25;1.20;;;;;;;9.16;52.07;99209.47;3480530;28;20052;-73
2021/11/09 05:54:12;;;;;;;3.45;1.42;;;;;;;9.11;51.69;99218.06;3493014;28;20045;-75
2021/11/09 05:55:52;;;;;;;3.05;1.58;;;;;;;9.07;51.77;99213.34;3495316;28;20044;-75
2021/11/09 05:57:33;;;;;;;1.35;1.17;;;;;;;9.03;51.51;99220.88;3495580;28;20036;-74
2021/11/09 05:59:14;;;;;;;1.98;1.50;;;;;;;8.96;51.31;99225.34;3494943;28;20378;-74
2021/11/09 06:00:55;;;;;;;2.95;1.92;;;;;;;8.87;51.56;99237.94;3476913;28;20560;-75
2021/11/09 06:02:36;;;;;;;3.17;1.88;;;;;;;8.81;51.56;99244.06;3492643;28;20165;-74
2021/11/09 06:04:17;;;;;;;3.45;1.63;;;;;;;8.76;51.39;99241.16;3480889;28;20064;-73
2021/11/09 06:05:58;;;;;;;2.88;1.90;;;;;;;8.70;51.79;99248.06;3491685;28;20037;-73
2021/11/09 06:07:39;;;;;;;5.15;2.42;;;;;;;8.66;51.86;99252.13;3479054;28;20037;-72
2021/11/09 06:09:20;;;;;;;2.58;1.58;;;;;;;8.61;51.75;99259.84;3492098;28;20468;-73
2021/11/09 06:11:02;;;;;;;3.90;1.85;;;;;;;8.60;51.64;99260.88;3496010;28;20040;-73
2021/11/09 06:12:42;;;;;;;1.48;1.23;;;;;;;8.61;51.46;99259.03;3496070;28;20087;-72
2021/11/09 06:14:23;;;;;;;1.67;1.58;;;;;;;8.60;51.37;99274.16;3496052;28;20040;-74
2021/11/09 06:16:04;;;;;;;2.92;1.65;;;;;;;8.60;51.20;99276.81;3495827;28;20044;-73
2021/11/09 06:17:45;;;;;;;4.03;1.90;;;;;;;8.60;51.04;99294.59;3495403;28;20039;-73
2021/11/09 06:19:26;;;;;;;2.40;1.88;;;;;;;8.55;50.97;99279.22;3480058;28;20550;-72
2021/11/09 06:21:07;;;;;;;1.67;1.30;;;;;;;8.56;50.82;99290.66;3491732;28;20065;-74
2021/11/09 06:22:50;;;;;;;3.28;2.22;;;;;;;8.57;50.49;99306.41;3495592;28;20441;-74
2021/11/09 06:24:31;;;;;;;3.15;1.80;;;;;;;8.57;50.41;99305.56;3481271;28;20045;-74
2021/11/09 06:26:12;;;;;;;3.08;1.63;;;;;;;8.55;50.14;99313.75;3492573;28;20044;-75
2021/11/09 06:27:53;;;;;;;1.75;1.30;;;;;;;8.53;50.16;99310.44;3495172;28;20043;-73
2021/11/09 06:29:37;;;;;;;2.72;1.42;;;;;;;8.55;50.35;99312.94;3495436;28;20037;-74
2021/11/09 06:31:18;;;;;;;2.25;1.55;;;;;;;8.55;49.81;99319.06;3493684;28;20465;-73
2021/11/09 06:32:59;;;;;;;2.53;1.65;;;;;;;8.55;50.09;99324.38;3479662;28;20136;-74
2021/11/09 06:34:40;;;;;;;3.70;2.60;;;;;;;8.59;49.99;99338.06;3476609;28;20064;-74
2021/11/09 06:36:21;;;;;;;1.65;1.15;;;;;;;8.59;49.81;99340.72;3486578;28;20512;-74
2021/11/09 06:38:01;;;;;;;2.92;1.30;;;;;;;8.56;49.61;99330.50;3492143;28;20083;-74
2021/11/09 06:39:42;;;;;;;1.00;0.98;;;;;;;8.54;49.21;99338.63;3496891;28;20036;-73
2021/11/09 06:41:23;;;;;;;1.92;1.20;;;;;;;8.52;49.20;99356.63;3497845;28;20071;-71
2021/11/09 06:43:05;;;;;;;2.85;1.45;;;;;;;8.47;49.00;99351.06;3484784;28;20037;-74
2021/11/09 06:44:46;;;;;;;1.48;1.38;;;;;;;8.45;48.91;99363.69;3478119;28;20036;-74
2021/11/09 06:46:27;;;;;;;6.78;1.25;;;;;;;8.43;48.90;99376.34;3494188;28;20033;-72
2021/11/09 06:48:08;;;;;;;1.85;1.20;;;;;;;8.40;48.64;99352.81;3497267;28;20040;-74
2021/11/09 06:49:48;;;;;;;2.03;1.80;;;;;;;8.39;49.12;99382.97;3481829;28;20033;-74
2021/11/09 06:51:29;;;;;;;4.35;3.00;;;;;;;8.40;49.28;99371.41;3494565;28;20029;-74
2021/11/09 06:53:10;;;;;;;4.15;3.45;;;;;;;8.40;49.05;99384.69;3497850;28;20071;-72
2021/11/09 06:54:50;;;;;;;3.95;3.00;;;;;;;8.39;48.69;99388.28;3497580;28;20041;-74
2021/11/09 06:56:32;;;;;;;4.72;1.77;;;;;;;8.34;48.66;99382.72;3497690;28;20044;-75
2021/11/09 06:58:14;;;;;;;3.90;1.30;;;;;;;8.35;48.80;99379.06;3496556;28;20051;-74
2021/11/09 06:59:54;;;;;;;1.13;1.02;;;;;;;8.35;48.93;99395.81;3482324;28;20041;-75
2021/11/09 07:01:35;;;;;;;2.72;1.20;;;;;;;8.33;48.61;99399.69;3489287;28;20040;-73
2021/11/09 07:03:16;;;;;;;2.03;1.30;;;;;;;8.32;48.41;99403.34;3482385;28;20625;-74
2021/11/09 07:04:57;;;;;;;1.17;1.08;;;;;;;8.26;48.22;99400.44;3493898;28;20282;-75
2021/11/09 07:06:38;;;;;;;0.93;0.93;;;;;;;8.25;48.24;99424.50;3497892;28;20040;-75
2021/11/09 07:08:19;;;;;;;1.75;1.30;;;;;;;8.20;48.12;99429.56;3497773;28;20143;-74
2021/11/09 07:09:59;;;;;;;1.58;0.95;;;;;;;8.16;48.11;99426.44;3496421;28;20036;-73
2021/11/09 07:11:40;;;;;;;1.75;1.25;;;;;;;8.14;48.39;99433.78;3486799;28;20045;-75
2021/11/09 07:13:21;;;;;;;1.70;1.35;;;;;;;8.12;48.37;99441.09;3497066;28;20040;-72
2021/11/09 07:15:03;;;;;;;3.90;1.00;;;;;;;8.09;48.67;99444.13;3497051;28;20487;-72
2021/11/09 07:16:45;;;;;;;2.50;1.63;;;;;;;8.06;48.61;99453.28;3495308;28;20507;-74
2021/11/09 07:18:26;;;;;;;1.08;0.95;;;;;;;8.06;48.68;99452.47;3482593;28;20144;-73
2021/11/09 07:20:08;;;;;;;1.45;1.20;;;;;;;8.04;48.78;99451.81;3492940;28;20048;-75
2021/11/09 07:21:52;;;;;;;3.00;1.20;;;;;;;8.06;48.73;99460.41;3481225;28;20056;-73
2021/11/09 07:23:33;;;;;;;1.15;0.90;;;;;;;8.05;48.74;99464.06;3494398;28;20504;-74
2021/11/09 07:25:14;;;;;;;1.80;1.10;;;;;;;8.05;48.41;99478.19;3481171;28;20080;-73
2021/11/09 07:26:54;;;;;;;3.22;1.17;;;;;;;8.03;48.28;99482.84;3493834;28;20526;-73
2021/11/09 07:28:38;;;;;;;2.72;1.13;;;;;;;8.04;48.36;99481.00;3497250;28;20123;-73
2021/11/09 07:30:19;;;;;;;1.15;0.93;;;;;;;8.08;48.44;99493.72;3496161;28;20047;-74
2021/11/09 07:32:00;;;;;;;1.75;1.10;;;;;;;8.09;47.81;99513.94;3493100;28;20036;-74
2021/11/09 07:33:40;;;;;;;3.05;1.20;;;;;;;8.08;47.92;99512.31;3492061;28;20385;-75
2021/11/09 07:35:21;;;;;;;2.47;1.30;;;;;;;8.07;47.69;99512.47;3496459;28;20040;-74
2021/11/09 07:37:02;;;;;;;1.00;0.90;;;;;;;8.05;47.76;99512.69;3496652;28;20079;-74
2021/11/09 07:38:44;;;;;;;5.13;1.73;;;;;;;8.05;47.53;99519.78;3495066;28;20044;-75
2021/11/09 07:40:25;;;;;;;4.57;0.90;;;;;;;8.07;47.43;99520.44;3495634;28;20332;-73
2021/11/09 07:42:06;;;;;;;2.57;0.90;;;;;;;8.06;47.49;99532.09;3497182;28;20040;-74
2021/11/09 07:43:47;;;;;;;0.93;0.80;;;;;;;7.98;47.17;99534.81;3497435;28;20796;-76
2021/11/09 07:45:28;;;;;;;1.00;0.57;;;;;;;7.89;46.78;99528.75;3496924;28;20051;-75
2021/11/09 07:47:09;;;;;;;2.80;1.20;;;;;;;7.94;46.95;99570.69;3493503;28;20041;-73
2021/11/09 07:48:50;;;;;;;1.38;0.90;;;;;;;7.93;46.90;99558.44;3495377;28;20476;-75
2021/11/09 07:50:31;;;;;;;3.47;1.40;;;;;;;7.93;47.14;99558.44;3496341;28;20068;-74
2021/11/09 07:52:12;;;;;;;2.42;1.10;;;;;;;7.93;46.92;99569.03;3496270;28;20052;-77
2021/11/09 07:53:54;;;;;;;1.50;1.13;;;;;;;7.93;46.96;99575.16;3495076;28;20036;-75
2021/11/09 07:55:47;;;;;;;2.67;1.50;;;;;;;7.91;46.61;99582.47;3496654;28;20044;-74
2021/11/09 07:57:34;;;;;;;4.60;1.45;;;;;;;7.88;46.79;99576.72;3481892;28;20132;-75
2021/11/09 08:01:07;;;;;;;1.17;0.98;;;;;;;7.86;46.60;99604.22;3481100;28;20047;-73
2021/11/09 08:03:02;;;;;;;2.05;1.10;;;;;;;7.83;46.68;99598.47;3494695;28;20048;-73
2021/11/09 08:04:51;;;;;;;1.63;0.90;;;;;;;7.84;46.67;99608.06;3483443;28;20036;-74
2021/11/09 08:06:47;;;;;;;3.78;0.90;;;;;;;7.82;46.38;99610.06;3471479;28;20037;-73
2021/11/09 08:08:33;;;;;;;0.98;0.88;;;;;;;7.85;46.15;99620.34;3494453;28;20086;-74
2021/11/09 08:10:13;;;;;;;2.05;0.93;;;;;;;7.86;46.28;99622.00;3496693;28;20052;-73
2021/11/09 08:12:01;;;;;;;1.63;1.10;;;;;;;7.88;45.83;99624.47;3495906;28;20044;-73
2021/11/09 08:13:42;;;;;;;3.35;0.90;;;;;;;7.85;46.01;99615.88;3497074;28;20083;-74
2021/11/09 08:15:23;;;;;;;1.48;0.85;;;;;;;7.82;45.86;99634.78;3496666;28;20432;-72
2021/11/09 08:17:04;;;;;;;1.43;0.70;;;;;;;7.81;45.81;99634.97;3482038;28;20239;-72
2021/11/09 08:18:45;;;;;;;1.23;1.00;;;;;;;7.76;45.86;99639.97;3489141;28;20515;-74
2021/11/09 08:20:26;;;;;;;3.40;0.88;;;;;;;7.74;45.70;99642.78;3495135;28;20147;-74
2021/11/09 08:22:07;;;;;;;2.30;0.93;;;;;;;7.72;45.97;99647.47;3481523;28;20055;-73
2021/11/09 08:23:49;;;;;;;1.88;0.90;;;;;;;7.71;45.91;99645.00;3479445;28;20048;-73
2021/11/09 08:25:30;;;;;;;1.77;1.17;;;;;;;7.73;46.19;99654.41;3493362;28;20063;-75
2021/11/09 08:27:12;;;;;;;1.10;0.90;;;;;;;7.73;45.98;99654.41;3494138;28;20040;-74
2021/11/09 08:28:54;;;;;;;1.02;0.90;;;;;;;7.71;46.01;99661.72;3495382;28;20097;-74
2021/11/09 08:30:35;;;;;;;;;;;;;;;7.82;46.29;99666.63;3485561;28;20040;-74
2021/11/09 08:32:16;;;;;;;4.22;0.85;;;;;;;7.75;46.03;99676.28;3496444;28;20401;-73
2021/11/09 08:33:57;;;;;;;4.28;0.98;;;;;;;7.71;46.02;99674.16;3496290;28;20041;-73
2021/11/09 08:35:38;;;;;;;1.60;1.05;;;;;;;7.69;45.90;99679.63;3496387;28;20155;-74
2021/11/09 08:37:20;;;;;;;3.25;0.60;;;;;;;7.67;45.78;99697.59;3479202;28;20036;-73
2021/11/09 08:39:04;;;;;;;1.13;1.00;;;;;;;7.64;45.80;99698.75;3492990;28;20044;-74
2021/11/09 08:40:45;;;;;;;2.67;0.70;;;;;;;7.62;46.13;99690.13;3496599;28;20044;-72
2021/11/09 08:43:08;;;;;;;1.48;0.90;;;;;;;7.64;45.92;99692.59;3479560;28;20176;-73
2021/11/09 08:44:35;;;;;;;1.75;1.00;;;;;;;7.69;45.86;99706.16;3474492;28;20060;-74
2021/11/09 08:46:20;;;;;;;4.32;1.10;;;;;;;7.71;45.86;99704.16;3468079;28;20052;-74
2021/11/09 08:48:15;;;;;;;2.08;1.30;;;;;;;7.71;45.73;99708.66;3493757;28;20029;-74
2021/11/09 08:49:58;;;;;;;8.77;1.58;;;;;;;7.66;45.83;99709.16;3495037;28;20036;-75
2021/11/09 08:51:40;;;;;;;15.05;1.05;;;;;;;7.82;47.77;99709.09;3480347;28;20036;-75
2021/11/09 08:53:37;;;;;;;7.35;1.55;;;;;;;8.04;47.35;99719.88;3487954;28;20075;-75
2021/11/09 08:55:52;;;;;;;1.38;0.80;;;;;;;8.12;46.40;99730.44;3489400;28;20045;-74
2021/11/09 09:04:11;;;;;;;2.05;1.00;;;;;;;8.28;44.97;99743.56;3450821;28;20057;-72
2021/11/09 09:05:45;;;;;;;1.73;1.00;;;;;;;8.52;44.31;99752.38;3461677;28;20041;-74
2021/11/09 09:07:28;;;;;;;1.17;0.93;;;;;;;9.05;43.79;99761.16;3490454;28;20039;-74
2021/11/09 09:09:09;;;;;;;1.77;1.15;;;;;;;9.50;43.06;99759.31;3453974;28;20034;-73
2021/11/09 09:10:50;;;;;;;1.95;1.05;;;;;;;9.68;42.45;99755.41;3469045;28;20094;-73
2021/11/09 09:12:35;;;;;;;2.75;1.08;;;;;;;9.72;42.09;99754.84;3485161;28;20040;-74
2021/11/09 09:14:19;;;;;;;2.92;0.80;;;;;;;9.97;44.83;99763.31;3479925;28;20043;-74
2021/11/09 09:16:00;;;;;;;1.92;0.95;;;;;;;10.28;45.94;99756.91;3488820;28;20507;-73
2021/11/09 09:17:41;;;;;;;2.80;1.02;;;;;;;10.63;46.59;99760.44;3493418;28;20271;-75
2021/11/09 09:19:32;;;;;;;2.92;1.05;;;;;;;10.87;45.77;99758.41;3476113;28;20064;-75
2021/11/09 09:21:21;;;;;;;1.20;0.82;;;;;;;11.67;44.32;99756.97;3471664;28;20127;-74
2021/11/09 09:23:05;;;;;;;0.77;0.70;;;;;;;12.45;41.54;99761.88;3465709;28;20041;-74
2021/11/09 09:30:33;;;;;;;3.55;0.90;;;;;;;14.27;36.91;99770.00;3486219;28;20179;-75
2021/11/09 09:54:29;;;;;;;0.85;0.82;;;;;;;14.56;34.63;99798.06;3491177;28;20044;-72
2021/11/09 09:58:11;;;;;;;4.43;0.85;;;;;;;14.94;34.18;99805.19;3486627;28;20048;-72
2021/11/09 09:59:53;;;;;;;1.90;0.95;;;;;;;15.13;33.38;99822.19;3482899;28;20045;-74
2021/11/09 10:01:34;;;;;;;2.67;1.15;;;;;;;15.20;33.01;99814.88;3482505;28;20057;-74
2021/11/09 10:03:15;;;;;;;5.05;0.90;;;;;;;15.53;32.53;99825.25;3475304;28;20045;-74
2021/11/09 10:05:09;;;;;;;2.25;0.82;;;;;;;16.13;31.91;99820.03;3491363;28;20058;-74
2021/11/09 10:06:49;;;;;;;4.00;1.02;;;;;;;16.29;31.62;99829.31;3487320;28;20041;-75
2021/11/09 10:08:49;;;;;;;3.55;0.90;;;;;;;16.46;30.75;99828.66;3482164;28;20041;-73
2021/11/09 10:10:33;;;;;;;3.13;1.58;;;;;;;16.64;30.85;99841.22;3491454;28;20033;-75